sensor_id;sensor_type;location;lat;lon;timestamp;P1;durP1;ratioP1;P2;durP2;ratioP2
17169;SDS011;8700;48.222;16.342;2023-04-24T00:01:01;11.25;;;10.25;;
17169;SDS011;8700;48.222;16.342;2023-04-24T00:04:23;10.50;;;9.75;;
17169;SDS011;8700;48.222;16.342;2023-04-24T00:07:46;10.30;;;9.52;;
17169;SDS011;8700;48.222;16.342;2023-04-24T00:11:08;10.98;;;9.48;;
17169;SDS011;8700;48.222;16.342;2023-04-24T00:14:29;10.48;;;9.60;;
17169;SDS011;8700;48.222;16.342;2023-04-24T00:17:51;10.88;;;10.07;;
17169;SDS011;8700;48.222;16.342;2023-04-24T00:21:12;10.65;;;9.85;;
17169;SDS011;8700;48.222;16.342;2023-04-24T00:24:35;10.25;;;9.40;;
17169;SDS011;8700;48.222;16.342;2023-04-24T00:27:57;9.63;;;8.73;;
17169;SDS011;8700;48.222;16.342;2023-04-24T00:31:18;11.07;;;10.27;;
17169;SDS011;8700;48.222;16.342;2023-04-24T00:34:39;9.82;;;9.02;;
17169;SDS011;8700;48.222;16.342;2023-04-24T00:38:01;10.90;;;9.95;;
17169;SDS011;8700;48.222;16.342;2023-04-24T00:41:24;10.65;;;9.75;;
17169;SDS011;8700;48.222;16.342;2023-04-24T00:44:45;11.23;;;10.23;;
17169;SDS011;8700;48.222;16.342;2023-04-24T00:48:06;10.00;;;9.30;;
17169;SDS011;8700;48.222;16.342;2023-04-24T00:51:28;11.57;;;10.48;;
17169;SDS011;8700;48.222;16.342;2023-04-24T00:54:50;11.02;;;9.88;;
17169;SDS011;8700;48.222;16.342;2023-04-24T00:58:13;11.18;;;10.25;;
17169;SDS011;8700;48.222;16.342;2023-04-24T01:01:34;12.35;;;11.45;;
17169;SDS011;8700;48.222;16.342;2023-04-24T01:04:56;9.85;;;9.15;;
17169;SDS011;8700;48.222;16.342;2023-04-24T01:08:17;11.98;;;10.90;;
17169;SDS011;8700;48.222;16.342;2023-04-24T01:11:39;11.60;;;10.40;;
17169;SDS011;8700;48.222;16.342;2023-04-24T01:15:04;11.48;;;10.48;;
17169;SDS011;8700;48.222;16.342;2023-04-24T01:18:26;11.00;;;10.20;;
17169;SDS011;8700;48.222;16.342;2023-04-24T01:21:49;13.85;;;12.48;;
17169;SDS011;8700;48.222;16.342;2023-04-24T01:25:15;11.88;;;10.85;;
17169;SDS011;8700;48.222;16.342;2023-04-24T01:28:36;12.48;;;11.57;;
17169;SDS011;8700;48.222;16.342;2023-04-24T01:31:58;13.02;;;11.93;;
17169;SDS011;8700;48.222;16.342;2023-04-24T01:35:19;13.52;;;12.43;;
17169;SDS011;8700;48.222;16.342;2023-04-24T01:38:40;11.80;;;10.93;;
17169;SDS011;8700;48.222;16.342;2023-04-24T01:42:03;12.93;;;11.93;;
17169;SDS011;8700;48.222;16.342;2023-04-24T01:45:25;12.18;;;11.27;;
17169;SDS011;8700;48.222;16.342;2023-04-24T01:48:47;11.38;;;10.48;;
17169;SDS011;8700;48.222;16.342;2023-04-24T01:52:08;12.20;;;11.32;;
17169;SDS011;8700;48.222;16.342;2023-04-24T01:55:29;13.82;;;12.68;;
17169;SDS011;8700;48.222;16.342;2023-04-24T01:58:52;13.80;;;12.70;;
17169;SDS011;8700;48.222;16.342;2023-04-24T02:02:15;13.52;;;12.43;;
17169;SDS011;8700;48.222;16.342;2023-04-24T02:05:36;10.98;;;10.07;;
17169;SDS011;8700;48.222;16.342;2023-04-24T02:08:57;10.98;;;9.93;;
17169;SDS011;8700;48.222;16.342;2023-04-24T02:12:18;10.82;;;10.00;;
17169;SDS011;8700;48.222;16.342;2023-04-24T02:15:41;10.52;;;9.70;;
17169;SDS011;8700;48.222;16.342;2023-04-24T02:19:02;10.30;;;9.50;;
17169;SDS011;8700;48.222;16.342;2023-04-24T02:22:24;9.77;;;8.98;;
17169;SDS011;8700;48.222;16.342;2023-04-24T02:25:45;9.05;;;8.23;;
17169;SDS011;8700;48.222;16.342;2023-04-24T02:29:06;8.77;;;7.97;;
17169;SDS011;8700;48.222;16.342;2023-04-24T02:32:29;8.77;;;8.07;;
17169;SDS011;8700;48.222;16.342;2023-04-24T02:35:50;8.93;;;8.23;;
17169;SDS011;8700;48.222;16.342;2023-04-24T02:39:11;9.15;;;8.45;;
17169;SDS011;8700;48.222;16.342;2023-04-24T02:42:35;8.85;;;8.05;;
17169;SDS011;8700;48.222;16.342;2023-04-24T02:45:57;9.23;;;8.43;;
17169;SDS011;8700;48.222;16.342;2023-04-24T02:49:19;8.80;;;8.10;;
17169;SDS011;8700;48.222;16.342;2023-04-24T02:52:40;9.15;;;8.45;;
17169;SDS011;8700;48.222;16.342;2023-04-24T02:56:02;8.30;;;7.57;;
17169;SDS011;8700;48.222;16.342;2023-04-24T02:59:23;8.23;;;7.65;;
17169;SDS011;8700;48.222;16.342;2023-04-24T03:02:46;8.93;;;8.15;;
17169;SDS011;8700;48.222;16.342;2023-04-24T03:06:10;7.72;;;7.22;;
17169;SDS011;8700;48.222;16.342;2023-04-24T03:09:31;7.28;;;6.78;;
17169;SDS011;8700;48.222;16.342;2023-04-24T03:12:52;7.75;;;7.13;;
17169;SDS011;8700;48.222;16.342;2023-04-24T03:16:14;8.45;;;7.85;;
17169;SDS011;8700;48.222;16.342;2023-04-24T03:19:35;7.68;;;7.15;;
17169;SDS011;8700;48.222;16.342;2023-04-24T03:22:58;8.60;;;7.80;;
17169;SDS011;8700;48.222;16.342;2023-04-24T03:26:19;9.10;;;8.25;;
17169;SDS011;8700;48.222;16.342;2023-04-24T03:29:41;7.53;;;7.03;;
17169;SDS011;8700;48.222;16.342;2023-04-24T03:33:02;8.35;;;7.55;;
17169;SDS011;8700;48.222;16.342;2023-04-24T03:36:24;7.53;;;6.95;;
17169;SDS011;8700;48.222;16.342;2023-04-24T03:39:47;8.52;;;7.95;;
17169;SDS011;8700;48.222;16.342;2023-04-24T03:43:08;7.32;;;6.72;;
17169;SDS011;8700;48.222;16.342;2023-04-24T03:46:29;8.02;;;7.43;;
17169;SDS011;8700;48.222;16.342;2023-04-24T03:49:51;6.70;;;6.20;;
17169;SDS011;8700;48.222;16.342;2023-04-24T03:53:13;8.68;;;7.97;;
17169;SDS011;8700;48.222;16.342;2023-04-24T03:56:36;8.70;;;8.00;;
17169;SDS011;8700;48.222;16.342;2023-04-24T03:59:57;7.57;;;6.97;;
17169;SDS011;8700;48.222;16.342;2023-04-24T04:03:19;7.25;;;6.75;;
17169;SDS011;8700;48.222;16.342;2023-04-24T04:06:40;7.88;;;7.28;;
17169;SDS011;8700;48.222;16.342;2023-04-24T04:10:01;8.85;;;8.05;;
17169;SDS011;8700;48.222;16.342;2023-04-24T04:13:24;6.18;;;5.78;;
17169;SDS011;8700;48.222;16.342;2023-04-24T04:16:45;7.43;;;6.93;;
17169;SDS011;8700;48.222;16.342;2023-04-24T04:20:07;7.38;;;6.72;;
17169;SDS011;8700;48.222;16.342;2023-04-24T04:23:30;7.50;;;6.80;;
17169;SDS011;8700;48.222;16.342;2023-04-24T04:26:51;7.35;;;6.60;;
17169;SDS011;8700;48.222;16.342;2023-04-24T04:30:17;6.38;;;5.97;;
17169;SDS011;8700;48.222;16.342;2023-04-24T04:33:40;5.63;;;5.20;;
17169;SDS011;8700;48.222;16.342;2023-04-24T04:37:01;8.80;;;7.80;;
17169;SDS011;8700;48.222;16.342;2023-04-24T04:40:22;7.50;;;5.93;;
17169;SDS011;8700;48.222;16.342;2023-04-24T04:43:44;6.47;;;5.97;;
17169;SDS011;8700;48.222;16.342;2023-04-24T04:47:07;6.68;;;5.93;;
17169;SDS011;8700;48.222;16.342;2023-04-24T04:50:28;5.97;;;5.57;;
17169;SDS011;8700;48.222;16.342;2023-04-24T04:53:49;6.10;;;5.60;;
17169;SDS011;8700;48.222;16.342;2023-04-24T04:57:11;11.40;;;9.65;;
17169;SDS011;8700;48.222;16.342;2023-04-24T05:00:32;6.05;;;5.65;;
17169;SDS011;8700;48.222;16.342;2023-04-24T05:03:56;6.57;;;5.72;;
17169;SDS011;8700;48.222;16.342;2023-04-24T05:07:17;6.80;;;6.15;;
17169;SDS011;8700;48.222;16.342;2023-04-24T05:10:39;5.72;;;5.32;;
17169;SDS011;8700;48.222;16.342;2023-04-24T05:14:06;5.85;;;5.45;;
17169;SDS011;8700;48.222;16.342;2023-04-24T05:17:27;5.85;;;5.45;;
17169;SDS011;8700;48.222;16.342;2023-04-24T05:21:03;5.03;;;4.53;;
17169;SDS011;8700;48.222;16.342;2023-04-24T05:24:25;6.03;;;5.63;;
17169;SDS011;8700;48.222;16.342;2023-04-24T05:27:46;5.45;;;5.00;;
17169;SDS011;8700;48.222;16.342;2023-04-24T05:31:07;6.85;;;6.45;;
17169;SDS011;8700;48.222;16.342;2023-04-24T05:34:29;5.90;;;5.40;;
17169;SDS011;8700;48.222;16.342;2023-04-24T05:37:51;5.40;;;4.90;;
17169;SDS011;8700;48.222;16.342;2023-04-24T05:41:12;6.10;;;5.70;;
17169;SDS011;8700;48.222;16.342;2023-04-24T05:44:34;5.80;;;5.38;;
17169;SDS011;8700;48.222;16.342;2023-04-24T05:47:55;6.25;;;5.82;;
17169;SDS011;8700;48.222;16.342;2023-04-24T05:51:16;6.35;;;5.80;;
17169;SDS011;8700;48.222;16.342;2023-04-24T05:54:39;6.35;;;5.95;;
17169;SDS011;8700;48.222;16.342;2023-04-24T05:58:00;6.45;;;5.65;;
17169;SDS011;8700;48.222;16.342;2023-04-24T06:01:21;5.97;;;5.68;;
17169;SDS011;8700;48.222;16.342;2023-04-24T06:04:44;6.03;;;5.53;;
17169;SDS011;8700;48.222;16.342;2023-04-24T06:08:06;6.28;;;5.72;;
17169;SDS011;8700;48.222;16.342;2023-04-24T06:11:29;6.32;;;5.82;;
17169;SDS011;8700;48.222;16.342;2023-04-24T06:14:51;6.00;;;5.55;;
17169;SDS011;8700;48.222;16.342;2023-04-24T06:18:13;4.88;;;4.47;;
17169;SDS011;8700;48.222;16.342;2023-04-24T06:21:35;6.95;;;6.25;;
17169;SDS011;8700;48.222;16.342;2023-04-24T06:24:56;5.75;;;5.25;;
17169;SDS011;8700;48.222;16.342;2023-04-24T06:28:19;6.00;;;5.45;;
17169;SDS011;8700;48.222;16.342;2023-04-24T06:31:40;7.15;;;6.35;;
17169;SDS011;8700;48.222;16.342;2023-04-24T06:35:10;5.93;;;5.57;;
17169;SDS011;8700;48.222;16.342;2023-04-24T06:38:31;6.82;;;6.32;;
17169;SDS011;8700;48.222;16.342;2023-04-24T06:41:53;6.13;;;5.70;;
17169;SDS011;8700;48.222;16.342;2023-04-24T06:45:16;7.47;;;6.88;;
17169;SDS011;8700;48.222;16.342;2023-04-24T06:48:38;6.00;;;5.50;;
17169;SDS011;8700;48.222;16.342;2023-04-24T06:51:59;4.75;;;4.35;;
17169;SDS011;8700;48.222;16.342;2023-04-24T06:55:21;6.25;;;5.85;;
17169;SDS011;8700;48.222;16.342;2023-04-24T06:58:43;5.72;;;5.32;;
17169;SDS011;8700;48.222;16.342;2023-04-24T07:02:06;4.80;;;4.50;;
17169;SDS011;8700;48.222;16.342;2023-04-24T07:05:27;4.85;;;4.55;;
17169;SDS011;8700;48.222;16.342;2023-04-24T07:08:48;4.85;;;4.55;;
17169;SDS011;8700;48.222;16.342;2023-04-24T07:12:10;5.68;;;5.28;;
17169;SDS011;8700;48.222;16.342;2023-04-24T07:15:31;4.82;;;4.50;;
17169;SDS011;8700;48.222;16.342;2023-04-24T07:18:54;6.13;;;5.72;;
17169;SDS011;8700;48.222;16.342;2023-04-24T07:22:16;5.63;;;5.22;;
17169;SDS011;8700;48.222;16.342;2023-04-24T07:25:38;5.40;;;5.00;;
17169;SDS011;8700;48.222;16.342;2023-04-24T07:29:00;8.23;;;5.72;;
17169;SDS011;8700;48.222;16.342;2023-04-24T07:32:23;8.75;;;5.80;;
17169;SDS011;8700;48.222;16.342;2023-04-24T07:35:45;5.72;;;5.32;;
17169;SDS011;8700;48.222;16.342;2023-04-24T07:39:08;6.47;;;5.97;;
17169;SDS011;8700;48.222;16.342;2023-04-24T07:42:29;5.35;;;4.90;;
17169;SDS011;8700;48.222;16.342;2023-04-24T07:45:51;4.68;;;4.45;;
17169;SDS011;8700;48.222;16.342;2023-04-24T07:49:12;4.43;;;4.20;;
17169;SDS011;8700;48.222;16.342;2023-04-24T07:52:34;5.47;;;4.95;;
17169;SDS011;8700;48.222;16.342;2023-04-24T07:55:56;4.90;;;4.47;;
17169;SDS011;8700;48.222;16.342;2023-04-24T07:59:18;4.82;;;4.43;;
17169;SDS011;8700;48.222;16.342;2023-04-24T08:02:41;4.97;;;4.45;;
17169;SDS011;8700;48.222;16.342;2023-04-24T08:06:05;5.20;;;4.75;;
17169;SDS011;8700;48.222;16.342;2023-04-24T08:09:28;4.80;;;4.50;;
17169;SDS011;8700;48.222;16.342;2023-04-24T08:12:49;5.43;;;5.03;;
17169;SDS011;8700;48.222;16.342;2023-04-24T08:16:10;5.03;;;4.72;;
17169;SDS011;8700;48.222;16.342;2023-04-24T08:19:32;5.35;;;5.05;;
17169;SDS011;8700;48.222;16.342;2023-04-24T08:22:53;8.13;;;5.18;;
17169;SDS011;8700;48.222;16.342;2023-04-24T08:26:17;6.63;;;5.13;;
17169;SDS011;8700;48.222;16.342;2023-04-24T08:29:38;4.20;;;3.85;;
17169;SDS011;8700;48.222;16.342;2023-04-24T08:33:00;4.25;;;3.80;;
17169;SDS011;8700;48.222;16.342;2023-04-24T08:36:21;4.53;;;4.13;;
17169;SDS011;8700;48.222;16.342;2023-04-24T08:39:43;4.00;;;3.70;;
17169;SDS011;8700;48.222;16.342;2023-04-24T08:43:05;7.55;;;4.15;;
17169;SDS011;8700;48.222;16.342;2023-04-24T08:46:27;4.22;;;4.03;;
17169;SDS011;8700;48.222;16.342;2023-04-24T08:49:50;3.40;;;3.10;;
17169;SDS011;8700;48.222;16.342;2023-04-24T08:53:13;3.85;;;3.55;;
17169;SDS011;8700;48.222;16.342;2023-04-24T08:56:35;3.00;;;2.78;;
17169;SDS011;8700;48.222;16.342;2023-04-24T09:00:00;3.53;;;3.22;;
17169;SDS011;8700;48.222;16.342;2023-04-24T09:03:25;2.55;;;2.45;;
17169;SDS011;8700;48.222;16.342;2023-04-24T09:06:49;2.85;;;2.67;;
17169;SDS011;8700;48.222;16.342;2023-04-24T09:10:10;3.42;;;3.22;;
17169;SDS011;8700;48.222;16.342;2023-04-24T09:13:32;2.72;;;2.50;;
17169;SDS011;8700;48.222;16.342;2023-04-24T09:16:56;2.60;;;2.40;;
17169;SDS011;8700;48.222;16.342;2023-04-24T09:20:17;3.42;;;3.13;;
17169;SDS011;8700;48.222;16.342;2023-04-24T09:23:39;5.25;;;3.33;;
17169;SDS011;8700;48.222;16.342;2023-04-24T09:27:01;3.53;;;3.22;;
17169;SDS011;8700;48.222;16.342;2023-04-24T09:30:23;3.50;;;3.15;;
17169;SDS011;8700;48.222;16.342;2023-04-24T09:33:53;2.55;;;2.40;;
17169;SDS011;8700;48.222;16.342;2023-04-24T09:37:27;2.75;;;2.63;;
17169;SDS011;8700;48.222;16.342;2023-04-24T09:40:49;3.05;;;2.85;;
17169;SDS011;8700;48.222;16.342;2023-04-24T09:44:11;3.60;;;3.30;;
17169;SDS011;8700;48.222;16.342;2023-04-24T09:47:35;3.67;;;3.40;;
17169;SDS011;8700;48.222;16.342;2023-04-24T09:50:58;4.05;;;3.75;;
17169;SDS011;8700;48.222;16.342;2023-04-24T09:54:21;2.63;;;2.47;;
17169;SDS011;8700;48.222;16.342;2023-04-24T09:57:50;4.13;;;3.88;;
17169;SDS011;8700;48.222;16.342;2023-04-24T10:01:12;3.70;;;3.40;;
17169;SDS011;8700;48.222;16.342;2023-04-24T10:04:33;3.58;;;3.38;;
17169;SDS011;8700;48.222;16.342;2023-04-24T10:08:01;3.00;;;2.90;;
17169;SDS011;8700;48.222;16.342;2023-04-24T10:11:23;2.97;;;2.78;;
17169;SDS011;8700;48.222;16.342;2023-04-24T10:14:45;2.95;;;2.75;;
17169;SDS011;8700;48.222;16.342;2023-04-24T10:18:07;3.03;;;2.92;;
17169;SDS011;8700;48.222;16.342;2023-04-24T10:21:29;3.33;;;3.13;;
17169;SDS011;8700;48.222;16.342;2023-04-24T10:24:53;2.83;;;2.72;;
17169;SDS011;8700;48.222;16.342;2023-04-24T10:28:14;3.67;;;3.47;;
17169;SDS011;8700;48.222;16.342;2023-04-24T10:31:38;2.80;;;2.70;;
17169;SDS011;8700;48.222;16.342;2023-04-24T10:35:00;3.45;;;3.17;;
17169;SDS011;8700;48.222;16.342;2023-04-24T10:38:21;3.05;;;2.85;;
17169;SDS011;8700;48.222;16.342;2023-04-24T10:41:47;3.30;;;3.20;;
17169;SDS011;8700;48.222;16.342;2023-04-24T10:45:15;3.08;;;2.88;;
17169;SDS011;8700;48.222;16.342;2023-04-24T10:48:42;2.47;;;2.38;;
17169;SDS011;8700;48.222;16.342;2023-04-24T10:52:03;3.33;;;3.13;;
17169;SDS011;8700;48.222;16.342;2023-04-24T10:59:08;3.22;;;3.13;;
17169;SDS011;8700;48.222;16.342;2023-04-24T11:02:35;3.53;;;3.33;;
17169;SDS011;8700;48.222;16.342;2023-04-24T11:05:59;5.75;;;5.45;;
17169;SDS011;8700;48.222;16.342;2023-04-24T11:09:22;3.50;;;3.30;;
17169;SDS011;8700;48.222;16.342;2023-04-24T11:12:46;2.70;;;2.50;;
17169;SDS011;8700;48.222;16.342;2023-04-24T11:16:16;3.13;;;3.00;;
17169;SDS011;8700;48.222;16.342;2023-04-24T11:19:41;3.00;;;2.90;;
17169;SDS011;8700;48.222;16.342;2023-04-24T11:23:03;3.67;;;3.42;;
17169;SDS011;8700;48.222;16.342;2023-04-24T11:26:25;5.13;;;3.60;;
17169;SDS011;8700;48.222;16.342;2023-04-24T11:29:58;4.10;;;3.15;;
17169;SDS011;8700;48.222;16.342;2023-04-24T11:33:21;3.55;;;3.35;;
17169;SDS011;8700;48.222;16.342;2023-04-24T11:36:43;3.65;;;3.45;;
17169;SDS011;8700;48.222;16.342;2023-04-24T11:40:05;3.45;;;3.15;;
17169;SDS011;8700;48.222;16.342;2023-04-24T11:43:28;3.58;;;3.28;;
17169;SDS011;8700;48.222;16.342;2023-04-24T11:46:51;4.38;;;3.97;;
17169;SDS011;8700;48.222;16.342;2023-04-24T11:50:14;3.72;;;3.47;;
17169;SDS011;8700;48.222;16.342;2023-04-24T11:53:37;4.05;;;3.70;;
17169;SDS011;8700;48.222;16.342;2023-04-24T11:56:58;4.25;;;3.90;;
17169;SDS011;8700;48.222;16.342;2023-04-24T12:00:20;4.20;;;3.80;;
17169;SDS011;8700;48.222;16.342;2023-04-24T12:03:46;4.72;;;4.32;;
17169;SDS011;8700;48.222;16.342;2023-04-24T12:07:11;3.72;;;3.53;;
17169;SDS011;8700;48.222;16.342;2023-04-24T12:10:33;4.00;;;3.70;;
17169;SDS011;8700;48.222;16.342;2023-04-24T12:13:55;6.10;;;5.60;;
17169;SDS011;8700;48.222;16.342;2023-04-24T12:17:16;3.97;;;3.78;;
17169;SDS011;8700;48.222;16.342;2023-04-24T12:20:38;4.78;;;4.40;;
17169;SDS011;8700;48.222;16.342;2023-04-24T12:24:05;4.05;;;3.75;;
17169;SDS011;8700;48.222;16.342;2023-04-24T12:27:28;4.20;;;3.90;;
17169;SDS011;8700;48.222;16.342;2023-04-24T12:30:51;4.65;;;4.35;;
17169;SDS011;8700;48.222;16.342;2023-04-24T12:34:17;4.50;;;4.28;;
17169;SDS011;8700;48.222;16.342;2023-04-24T12:37:41;5.30;;;4.90;;
17169;SDS011;8700;48.222;16.342;2023-04-24T12:41:05;5.35;;;5.00;;
17169;SDS011;8700;48.222;16.342;2023-04-24T12:44:31;4.18;;;3.90;;
17169;SDS011;8700;48.222;16.342;2023-04-24T12:47:53;4.30;;;4.00;;
17169;SDS011;8700;48.222;16.342;2023-04-24T12:51:14;5.00;;;4.70;;
17169;SDS011;8700;48.222;16.342;2023-04-24T12:54:36;4.45;;;4.22;;
17169;SDS011;8700;48.222;16.342;2023-04-24T12:57:58;4.53;;;4.25;;
17169;SDS011;8700;48.222;16.342;2023-04-24T13:01:21;4.35;;;4.05;;
17169;SDS011;8700;48.222;16.342;2023-04-24T13:04:42;5.97;;;5.68;;
17169;SDS011;8700;48.222;16.342;2023-04-24T13:08:05;6.80;;;6.20;;
17169;SDS011;8700;48.222;16.342;2023-04-24T13:11:26;5.47;;;5.07;;
17169;SDS011;8700;48.222;16.342;2023-04-24T13:14:49;5.45;;;4.95;;
17169;SDS011;8700;48.222;16.342;2023-04-24T13:18:10;5.70;;;5.20;;
17169;SDS011;8700;48.222;16.342;2023-04-24T13:21:31;4.82;;;4.43;;
17169;SDS011;8700;48.222;16.342;2023-04-24T13:24:53;10.15;;;9.23;;
17169;SDS011;8700;48.222;16.342;2023-04-24T13:28:15;4.00;;;3.80;;
17169;SDS011;8700;48.222;16.342;2023-04-24T13:31:38;4.35;;;4.05;;
17169;SDS011;8700;48.222;16.342;2023-04-24T13:34:59;4.30;;;4.05;;
17169;SDS011;8700;48.222;16.342;2023-04-24T13:38:20;5.47;;;5.07;;
17169;SDS011;8700;48.222;16.342;2023-04-24T13:41:42;4.75;;;4.45;;
17169;SDS011;8700;48.222;16.342;2023-04-24T13:45:04;4.50;;;4.30;;
17169;SDS011;8700;48.222;16.342;2023-04-24T13:48:28;6.00;;;5.40;;
17169;SDS011;8700;48.222;16.342;2023-04-24T13:51:49;4.72;;;4.05;;
17169;SDS011;8700;48.222;16.342;2023-04-24T13:55:10;4.93;;;4.57;;
17169;SDS011;8700;48.222;16.342;2023-04-24T13:58:32;4.32;;;3.92;;
17169;SDS011;8700;48.222;16.342;2023-04-24T14:01:53;6.68;;;5.70;;
17169;SDS011;8700;48.222;16.342;2023-04-24T14:05:15;5.32;;;5.03;;
17169;SDS011;8700;48.222;16.342;2023-04-24T14:08:37;5.32;;;4.88;;
17169;SDS011;8700;48.222;16.342;2023-04-24T14:11:59;4.70;;;4.25;;
17169;SDS011;8700;48.222;16.342;2023-04-24T14:15:20;4.57;;;4.15;;
17169;SDS011;8700;48.222;16.342;2023-04-24T14:18:41;4.60;;;4.20;;
17169;SDS011;8700;48.222;16.342;2023-04-24T14:22:04;5.30;;;3.08;;
17169;SDS011;8700;48.222;16.342;2023-04-24T14:25:26;6.53;;;6.13;;
17169;SDS011;8700;48.222;16.342;2023-04-24T14:28:47;6.20;;;5.75;;
17169;SDS011;8700;48.222;16.342;2023-04-24T14:32:09;5.35;;;4.90;;
17169;SDS011;8700;48.222;16.342;2023-04-24T14:35:30;5.22;;;4.88;;
17169;SDS011;8700;48.222;16.342;2023-04-24T14:38:55;4.65;;;4.25;;
17169;SDS011;8700;48.222;16.342;2023-04-24T14:42:16;4.03;;;3.80;;
17169;SDS011;8700;48.222;16.342;2023-04-24T14:45:37;5.15;;;4.85;;
17169;SDS011;8700;48.222;16.342;2023-04-24T14:49:00;3.10;;;2.90;;
17169;SDS011;8700;48.222;16.342;2023-04-24T14:52:21;3.70;;;3.50;;
17169;SDS011;8700;48.222;16.342;2023-04-24T14:55:44;4.15;;;3.95;;
17169;SDS011;8700;48.222;16.342;2023-04-24T14:59:05;4.05;;;3.75;;
17169;SDS011;8700;48.222;16.342;2023-04-24T15:02:27;4.22;;;3.92;;
17169;SDS011;8700;48.222;16.342;2023-04-24T15:05:48;4.43;;;3.65;;
17169;SDS011;8700;48.222;16.342;2023-04-24T15:09:10;3.90;;;3.55;;
17169;SDS011;8700;48.222;16.342;2023-04-24T15:12:32;3.60;;;3.30;;
17169;SDS011;8700;48.222;16.342;2023-04-24T15:15:53;4.25;;;3.72;;
17169;SDS011;8700;48.222;16.342;2023-04-24T15:19:15;4.03;;;3.63;;
17169;SDS011;8700;48.222;16.342;2023-04-24T15:22:36;4.55;;;4.15;;
17169;SDS011;8700;48.222;16.342;2023-04-24T15:25:58;4.15;;;3.85;;
17169;SDS011;8700;48.222;16.342;2023-04-24T15:29:21;3.70;;;3.50;;
17169;SDS011;8700;48.222;16.342;2023-04-24T15:32:43;3.88;;;3.58;;
17169;SDS011;8700;48.222;16.342;2023-04-24T15:36:04;5.03;;;4.72;;
17169;SDS011;8700;48.222;16.342;2023-04-24T15:39:26;3.08;;;2.35;;
17169;SDS011;8700;48.222;16.342;2023-04-24T15:42:47;4.35;;;3.90;;
17169;SDS011;8700;48.222;16.342;2023-04-24T15:46:10;4.65;;;4.32;;
17169;SDS011;8700;48.222;16.342;2023-04-24T15:49:31;3.60;;;3.28;;
17169;SDS011;8700;48.222;16.342;2023-04-24T15:52:53;3.08;;;2.67;;
17169;SDS011;8700;48.222;16.342;2023-04-24T15:56:14;3.20;;;3.00;;
17169;SDS011;8700;48.222;16.342;2023-04-24T15:59:35;7.47;;;6.78;;
17169;SDS011;8700;48.222;16.342;2023-04-24T16:02:58;4.07;;;3.78;;
17169;SDS011;8700;48.222;16.342;2023-04-24T16:06:20;3.50;;;3.30;;
17169;SDS011;8700;48.222;16.342;2023-04-24T16:09:42;3.45;;;3.15;;
17169;SDS011;8700;48.222;16.342;2023-04-24T16:13:04;2.90;;;2.70;;
17169;SDS011;8700;48.222;16.342;2023-04-24T16:16:26;3.60;;;2.50;;
17169;SDS011;8700;48.222;16.342;2023-04-24T16:19:49;2.67;;;2.55;;
17169;SDS011;8700;48.222;16.342;2023-04-24T16:23:11;4.20;;;3.78;;
17169;SDS011;8700;48.222;16.342;2023-04-24T16:26:34;2.90;;;2.55;;
17169;SDS011;8700;48.222;16.342;2023-04-24T16:29:57;2.60;;;2.50;;
17169;SDS011;8700;48.222;16.342;2023-04-24T16:33:19;2.53;;;2.42;;
17169;SDS011;8700;48.222;16.342;2023-04-24T16:36:42;3.95;;;2.92;;
17169;SDS011;8700;48.222;16.342;2023-04-24T16:40:05;5.07;;;3.10;;
17169;SDS011;8700;48.222;16.342;2023-04-24T16:43:29;4.47;;;3.28;;
17169;SDS011;8700;48.222;16.342;2023-04-24T16:46:51;3.45;;;3.15;;
17169;SDS011;8700;48.222;16.342;2023-04-24T16:50:13;4.00;;;3.63;;
17169;SDS011;8700;48.222;16.342;2023-04-24T16:53:36;3.92;;;3.53;;
17169;SDS011;8700;48.222;16.342;2023-04-24T16:56:58;4.50;;;4.10;;
17169;SDS011;8700;48.222;16.342;2023-04-24T17:00:20;3.95;;;3.65;;
17169;SDS011;8700;48.222;16.342;2023-04-24T17:03:42;5.97;;;3.92;;
17169;SDS011;8700;48.222;16.342;2023-04-24T17:07:05;5.18;;;4.78;;
17169;SDS011;8700;48.222;16.342;2023-04-24T17:10:30;4.50;;;4.20;;
17169;SDS011;8700;48.222;16.342;2023-04-24T17:13:52;4.25;;;3.88;;
17169;SDS011;8700;48.222;16.342;2023-04-24T17:17:15;3.70;;;3.40;;
17169;SDS011;8700;48.222;16.342;2023-04-24T17:20:38;3.50;;;3.30;;
17169;SDS011;8700;48.222;16.342;2023-04-24T17:24:00;4.43;;;4.10;;
17169;SDS011;8700;48.222;16.342;2023-04-24T17:27:26;4.20;;;3.90;;
17169;SDS011;8700;48.222;16.342;2023-04-24T17:30:47;4.30;;;4.00;;
17169;SDS011;8700;48.222;16.342;2023-04-24T17:34:09;4.50;;;4.10;;
17169;SDS011;8700;48.222;16.342;2023-04-24T17:37:31;5.72;;;5.20;;
17169;SDS011;8700;48.222;16.342;2023-04-24T17:40:53;5.20;;;4.80;;
17169;SDS011;8700;48.222;16.342;2023-04-24T17:44:17;4.43;;;4.13;;
17169;SDS011;8700;48.222;16.342;2023-04-24T17:47:39;4.95;;;4.45;;
17169;SDS011;8700;48.222;16.342;2023-04-24T17:51:04;6.55;;;6.05;;
17169;SDS011;8700;48.222;16.342;2023-04-24T17:54:26;5.15;;;4.60;;
17169;SDS011;8700;48.222;16.342;2023-04-24T17:57:49;6.05;;;5.45;;
17169;SDS011;8700;48.222;16.342;2023-04-24T18:01:12;4.85;;;4.55;;
17169;SDS011;8700;48.222;16.342;2023-04-24T18:04:33;5.40;;;5.00;;
17169;SDS011;8700;48.222;16.342;2023-04-24T18:08:00;5.40;;;5.05;;
17169;SDS011;8700;48.222;16.342;2023-04-24T18:11:23;5.85;;;5.35;;
17169;SDS011;8700;48.222;16.342;2023-04-24T18:14:45;5.10;;;4.80;;
17169;SDS011;8700;48.222;16.342;2023-04-24T18:18:08;7.00;;;5.40;;
17169;SDS011;8700;48.222;16.342;2023-04-24T18:21:30;4.43;;;4.13;;
17169;SDS011;8700;48.222;16.342;2023-04-24T18:24:52;6.50;;;5.95;;
17169;SDS011;8700;48.222;16.342;2023-04-24T18:28:14;5.32;;;4.25;;
17169;SDS011;8700;48.222;16.342;2023-04-24T18:31:35;4.68;;;4.30;;
17169;SDS011;8700;48.222;16.342;2023-04-24T18:34:59;4.00;;;3.80;;
17169;SDS011;8700;48.222;16.342;2023-04-24T18:38:21;4.90;;;4.50;;
17169;SDS011;8700;48.222;16.342;2023-04-24T18:41:44;4.07;;;3.78;;
17169;SDS011;8700;48.222;16.342;2023-04-24T18:45:06;4.85;;;4.22;;
17169;SDS011;8700;48.222;16.342;2023-04-24T18:48:28;3.67;;;3.47;;
17169;SDS011;8700;48.222;16.342;2023-04-24T18:51:52;4.07;;;3.83;;
17169;SDS011;8700;48.222;16.342;2023-04-24T18:55:13;6.00;;;5.47;;
17169;SDS011;8700;48.222;16.342;2023-04-24T18:58:35;4.45;;;4.15;;
17169;SDS011;8700;48.222;16.342;2023-04-24T19:01:59;4.72;;;4.43;;
17169;SDS011;8700;48.222;16.342;2023-04-24T19:05:21;5.90;;;4.85;;
17169;SDS011;8700;48.222;16.342;2023-04-24T19:08:44;4.88;;;4.47;;
17169;SDS011;8700;48.222;16.342;2023-04-24T19:12:06;4.40;;;4.10;;
17169;SDS011;8700;48.222;16.342;2023-04-24T19:15:27;4.60;;;4.30;;
17169;SDS011;8700;48.222;16.342;2023-04-24T19:18:49;4.63;;;4.32;;
17169;SDS011;8700;48.222;16.342;2023-04-24T19:22:11;5.53;;;5.13;;
17169;SDS011;8700;48.222;16.342;2023-04-24T19:25:34;5.00;;;4.65;;
17169;SDS011;8700;48.222;16.342;2023-04-24T19:28:56;5.35;;;5.05;;
17169;SDS011;8700;48.222;16.342;2023-04-24T19:32:18;5.00;;;4.70;;
17169;SDS011;8700;48.222;16.342;2023-04-24T19:35:39;6.05;;;5.65;;
17169;SDS011;8700;48.222;16.342;2023-04-24T19:39:04;6.05;;;5.65;;
17169;SDS011;8700;48.222;16.342;2023-04-24T19:42:27;6.57;;;5.82;;
17169;SDS011;8700;48.222;16.342;2023-04-24T19:45:49;6.47;;;6.00;;
17169;SDS011;8700;48.222;16.342;2023-04-24T19:49:13;6.13;;;5.72;;
17169;SDS011;8700;48.222;16.342;2023-04-24T19:52:35;6.38;;;5.88;;
17169;SDS011;8700;48.222;16.342;2023-04-24T19:55:57;6.70;;;6.05;;
17169;SDS011;8700;48.222;16.342;2023-04-24T19:59:21;5.78;;;5.30;;
17169;SDS011;8700;48.222;16.342;2023-04-24T20:02:42;5.70;;;5.22;;
17169;SDS011;8700;48.222;16.342;2023-04-24T20:06:04;5.50;;;5.07;;
17169;SDS011;8700;48.222;16.342;2023-04-24T20:09:26;4.75;;;4.45;;
17169;SDS011;8700;48.222;16.342;2023-04-24T20:12:49;5.18;;;4.88;;
17169;SDS011;8700;48.222;16.342;2023-04-24T20:16:12;5.43;;;5.07;;
17169;SDS011;8700;48.222;16.342;2023-04-24T20:19:33;4.93;;;4.63;;